createdAt,value
2018-02-14T00:01:15.294Z,57.80
2018-02-14T00:03:43.548Z,57.50
2018-02-14T00:06:11.790Z,57.50
2018-02-14T00:08:40.010Z,57.40
2018-02-14T00:11:08.277Z,57.50
2018-02-14T00:13:36.484Z,57.60
2018-02-14T00:16:04.743Z,57.40
2018-02-14T00:18:33.014Z,57.30
2018-02-14T00:21:01.274Z,57.30
2018-02-14T00:23:29.574Z,58.00
2018-02-14T00:25:57.798Z,57.20
2018-02-14T00:28:26.113Z,57.00
2018-02-14T00:30:54.356Z,57.00
2018-02-14T00:33:23.344Z,56.90
2018-02-14T00:35:51.662Z,56.80
2018-02-14T00:38:19.907Z,57.00
2018-02-14T00:40:48.224Z,57.20
2018-02-14T00:43:16.495Z,57.30
2018-02-14T00:45:44.780Z,57.80
2018-02-14T00:48:13.006Z,57.60
2018-02-14T00:50:41.418Z,57.70
2018-02-14T00:53:09.705Z,57.70
2018-02-14T00:55:37.912Z,57.80
2018-02-14T00:58:06.150Z,57.90
2018-02-14T01:00:34.401Z,57.80
2018-02-14T01:03:03.409Z,58.40
2018-02-14T01:05:32.406Z,57.90
2018-02-14T01:08:00.661Z,57.80
2018-02-14T01:10:28.890Z,57.90
2018-02-14T01:12:57.159Z,57.80
2018-02-14T01:15:25.392Z,57.80
2018-02-14T01:17:54.405Z,57.80
2018-02-14T01:20:29.021Z,57.70
2018-02-14T01:22:58.099Z,57.80
2018-02-14T01:25:26.293Z,57.80
2018-02-14T01:27:55.308Z,58.20
2018-02-14T01:30:23.591Z,58.10
2018-02-14T01:32:51.804Z,58.20
2018-02-14T01:35:20.135Z,58.40
2018-02-14T01:37:48.386Z,58.30
2018-02-14T01:40:17.370Z,58.20
2018-02-14T01:42:45.615Z,58.20
2018-02-14T01:45:13.820Z,58.30
2018-02-14T01:47:42.133Z,58.40
2018-02-14T01:50:10.338Z,58.40
2018-02-14T01:52:38.580Z,58.50
2018-02-14T01:55:06.837Z,58.50
2018-02-14T01:57:35.830Z,58.40
2018-02-14T02:00:04.823Z,58.50
2018-02-14T02:02:33.949Z,58.50
2018-02-14T02:05:02.155Z,58.40
2018-02-14T02:07:30.406Z,58.40
2018-02-14T02:09:58.725Z,58.40
2018-02-14T02:12:26.909Z,58.30
2018-02-14T02:14:55.140Z,58.40
2018-02-14T02:17:23.360Z,58.40
2018-02-14T02:19:51.600Z,58.60
2018-02-14T02:22:19.817Z,58.60
2018-02-14T02:24:48.839Z,58.90
2018-02-14T02:27:17.110Z,58.80
2018-02-14T02:29:46.084Z,58.90
2018-02-14T02:32:15.092Z,58.80
2018-02-14T02:34:44.083Z,58.80
2018-02-14T02:37:13.185Z,58.70
2018-02-14T02:39:53.308Z,58.60
2018-02-14T02:42:21.519Z,58.60
2018-02-14T02:44:49.796Z,59.00
2018-02-14T02:47:18.067Z,59.10
2018-02-14T02:49:46.292Z,58.90
2018-02-14T02:52:14.549Z,58.80
2018-02-14T02:54:42.813Z,58.80
2018-02-14T02:57:11.042Z,58.80
2018-02-14T02:59:39.286Z,58.70
2018-02-14T03:02:07.508Z,58.70
2018-02-14T03:04:36.563Z,58.80
2018-02-14T03:07:04.892Z,58.80
2018-02-14T03:09:33.190Z,58.90
2018-02-14T03:12:01.393Z,59.00
2018-02-14T03:14:29.647Z,59.70
2018-02-14T03:16:57.911Z,60.00
2018-02-14T03:19:26.126Z,59.30
2018-02-14T03:21:54.453Z,59.20
2018-02-14T03:24:22.740Z,59.00
2018-02-14T03:26:51.107Z,59.10
2018-02-14T03:29:19.346Z,59.90
2018-02-14T03:31:47.563Z,59.40
2018-02-14T03:34:15.805Z,59.20
2018-02-14T03:36:44.126Z,59.20
2018-02-14T03:39:12.401Z,59.30
2018-02-14T03:41:40.640Z,59.30
2018-02-14T03:44:08.875Z,59.20
2018-02-14T03:46:37.103Z,59.00
2018-02-14T03:49:06.110Z,58.60
2018-02-14T03:51:34.376Z,58.50
2018-02-14T03:54:04.166Z,58.80
2018-02-14T03:56:32.357Z,58.70
2018-02-14T03:59:01.342Z,58.80
2018-02-14T04:01:30.347Z,59.40
2018-02-14T04:03:59.354Z,58.70
2018-02-14T04:06:27.575Z,58.60
2018-02-14T04:08:55.808Z,58.90
2018-02-14T04:11:24.088Z,59.00
2018-02-14T04:13:52.390Z,58.90
2018-02-14T04:16:20.635Z,59.20
2018-02-14T04:18:48.881Z,59.50
2018-02-14T04:21:17.122Z,59.60
2018-02-14T04:23:45.400Z,59.60
2018-02-14T04:26:13.624Z,60.30
2018-02-14T04:28:42.639Z,59.70
2018-02-14T04:31:10.885Z,59.60
2018-02-14T04:33:39.182Z,59.60
2018-02-14T04:36:07.441Z,59.50
2018-02-14T04:38:36.456Z,60.20
2018-02-14T04:41:04.701Z,60.20
2018-02-14T04:43:33.033Z,60.10
2018-02-14T04:46:01.253Z,60.00
2018-02-14T04:48:29.526Z,61.00
2018-02-14T04:50:57.810Z,60.10
2018-02-14T04:53:26.119Z,60.00
2018-02-14T04:55:54.364Z,60.00
2018-02-14T04:58:23.386Z,59.90
2018-02-14T05:00:51.609Z,59.90
2018-02-14T05:03:19.863Z,60.00
2018-02-14T05:05:48.083Z,60.00
2018-02-14T05:08:16.337Z,60.90
2018-02-14T05:10:44.583Z,60.20
2018-02-14T05:13:12.840Z,61.40
2018-02-14T05:15:41.091Z,60.70
2018-02-14T05:18:10.085Z,60.40
2018-02-14T05:20:39.136Z,60.50
2018-02-14T05:23:07.388Z,60.40
2018-02-14T05:25:35.642Z,60.50
2018-02-14T05:28:04.686Z,60.50
2018-02-14T05:30:32.923Z,60.40
2018-02-14T05:33:01.170Z,60.40
2018-02-14T05:35:29.391Z,60.70
2018-02-14T05:37:57.645Z,60.60
2018-02-14T05:40:26.676Z,60.40
2018-02-14T05:42:54.901Z,60.30
2018-02-14T05:45:23.904Z,60.80
2018-02-14T05:47:52.926Z,60.70
2018-02-14T05:50:21.157Z,60.70
2018-02-14T05:52:49.400Z,60.70
2018-02-14T05:55:17.742Z,60.90
2018-02-14T05:57:46.026Z,60.90
2018-02-14T06:00:14.274Z,61.00
2018-02-14T06:02:43.289Z,61.40
2018-02-14T06:05:11.523Z,61.10
2018-02-14T06:07:39.764Z,61.40
2018-02-14T06:10:08.014Z,61.20
2018-02-14T06:12:36.267Z,61.40
2018-02-14T06:15:05.301Z,61.20
2018-02-14T06:17:33.569Z,61.10
2018-02-14T06:20:01.851Z,61.10
2018-02-14T06:22:30.075Z,61.30
2018-02-14T06:24:58.330Z,61.60
2018-02-14T06:27:26.573Z,61.40
2018-02-14T06:29:54.814Z,61.20
2018-02-14T06:32:23.815Z,61.90
2018-02-14T06:34:52.816Z,62.40
2018-02-14T06:37:21.931Z,62.40
2018-02-14T06:39:50.207Z,62.30
2018-02-14T06:42:18.492Z,62.10
2018-02-14T06:44:46.717Z,62.20
2018-02-14T06:47:14.961Z,62.80
2018-02-14T06:49:43.207Z,63.00
2018-02-14T06:52:11.494Z,63.00
2018-02-14T06:54:39.766Z,63.10
2018-02-14T06:57:08.007Z,62.70
2018-02-14T06:59:36.324Z,62.70
2018-02-14T07:02:04.564Z,62.70
2018-02-14T07:04:33.561Z,64.10
2018-02-14T07:07:01.875Z,63.20
2018-02-14T07:09:30.105Z,63.20
2018-02-14T07:11:58.329Z,63.20
2018-02-14T07:14:26.593Z,63.50
2018-02-14T07:16:54.830Z,63.60
2018-02-14T07:19:23.109Z,64.60
2018-02-14T07:21:51.326Z,64.20
2018-02-14T07:24:19.565Z,63.10
2018-02-14T07:26:47.789Z,63.40
2018-02-14T07:29:16.846Z,63.80
2018-02-14T07:31:45.035Z,63.70
2018-02-14T07:34:13.286Z,64.10
2018-02-14T07:36:42.304Z,64.70
2018-02-14T07:39:10.594Z,64.60
2018-02-14T07:41:38.865Z,64.10
2018-02-14T07:44:07.149Z,63.80
2018-02-14T07:46:35.399Z,63.90
2018-02-14T07:49:04.402Z,63.70
2018-02-14T07:51:32.656Z,63.70
2018-02-14T07:54:01.683Z,63.20
2018-02-14T07:56:29.977Z,63.20
2018-02-14T07:58:58.220Z,63.50
2018-02-14T08:01:27.327Z,63.60
2018-02-14T08:03:55.564Z,63.60
2018-02-14T08:06:23.816Z,63.60
2018-02-14T08:08:52.086Z,63.50
2018-02-14T08:11:20.439Z,63.20
2018-02-14T08:13:48.686Z,63.10
2018-02-14T08:16:17.710Z,63.00
2018-02-14T08:18:45.947Z,63.00
2018-02-14T08:21:14.282Z,63.00
2018-02-14T08:23:42.552Z,63.20
2018-02-14T08:26:10.803Z,63.70
2018-02-14T08:28:39.057Z,63.70
2018-02-14T08:31:07.310Z,64.00
2018-02-14T08:33:35.560Z,64.10
2018-02-14T08:36:03.822Z,64.00
2018-02-14T08:38:32.071Z,63.60
2018-02-14T08:41:01.090Z,63.10
2018-02-14T08:43:29.365Z,63.10
2018-02-14T08:45:57.594Z,63.10
2018-02-14T08:48:25.861Z,63.40
2018-02-14T08:50:54.129Z,63.10
2018-02-14T08:53:22.392Z,63.40
2018-02-14T08:55:50.643Z,63.00
2018-02-14T08:58:19.657Z,62.40
2018-02-14T09:00:47.909Z,62.30
2018-02-14T09:03:16.171Z,62.30
2018-02-14T09:05:45.193Z,62.00
2018-02-14T09:08:13.470Z,61.90
2018-02-14T09:10:42.562Z,62.40
2018-02-14T09:13:10.813Z,62.00
2018-02-14T09:15:39.803Z,61.90
2018-02-14T09:18:08.913Z,61.60
2018-02-14T09:20:37.911Z,61.50
2018-02-14T09:23:06.139Z,61.40
2018-02-14T09:25:34.422Z,61.60
2018-02-14T09:28:02.648Z,61.30
2018-02-14T09:30:30.896Z,61.40
2018-02-14T09:35:15.964Z,60.60
2018-02-14T09:37:44.204Z,61.30
2018-02-14T09:40:12.423Z,61.60
2018-02-14T09:42:40.675Z,61.80
2018-02-14T09:45:08.912Z,61.60
2018-02-14T09:47:37.191Z,61.70
2018-02-14T09:50:05.431Z,61.60
2018-02-14T09:52:33.741Z,61.40
2018-02-14T09:55:02.015Z,61.10
2018-02-14T09:57:30.259Z,60.80
2018-02-14T09:59:58.588Z,60.60
2018-02-14T10:02:26.815Z,60.30
2018-02-14T10:04:55.035Z,60.10
2018-02-14T10:07:23.317Z,60.00
2018-02-14T10:09:51.565Z,60.00
2018-02-14T10:12:20.816Z,60.00
2018-02-14T10:14:49.048Z,59.70
2018-02-14T10:17:17.285Z,59.60
2018-02-14T10:19:45.604Z,59.40
2018-02-14T10:22:13.832Z,59.40
2018-02-14T10:24:42.083Z,59.40
2018-02-14T10:27:10.309Z,59.40
2018-02-14T10:29:39.386Z,59.30
2018-02-14T10:32:07.709Z,59.30
2018-02-14T10:34:35.952Z,59.30
2018-02-14T10:37:04.991Z,59.80
2018-02-14T10:39:33.248Z,59.20
2018-02-14T10:42:01.517Z,59.30
2018-02-14T10:44:29.724Z,59.20
2018-02-14T10:46:57.974Z,59.00
2018-02-14T10:49:26.289Z,58.90
2018-02-14T10:51:54.548Z,58.80
2018-02-14T10:54:22.809Z,58.60
2018-02-14T10:56:51.076Z,58.20
2018-02-14T10:59:19.470Z,58.60
2018-02-14T11:01:53.396Z,58.60
2018-02-14T11:04:22.522Z,58.70
2018-02-14T11:06:52.282Z,58.60
2018-02-14T11:09:20.515Z,58.60
2018-02-14T11:11:48.725Z,58.50
2018-02-14T11:14:16.996Z,58.40
2018-02-14T11:16:45.981Z,58.20
2018-02-14T11:19:14.985Z,58.20
2018-02-14T11:21:43.202Z,58.10
2018-02-14T11:24:11.518Z,58.10
2018-02-14T11:26:40.528Z,58.00
2018-02-14T11:29:08.778Z,58.00
2018-02-14T11:31:37.061Z,57.90
2018-02-14T11:34:05.384Z,57.90
2018-02-14T11:36:33.602Z,57.70
2018-02-14T11:39:01.922Z,57.90
2018-02-14T11:41:30.159Z,57.70
2018-02-14T11:43:58.381Z,57.40
2018-02-14T11:46:26.632Z,57.20
2018-02-14T11:48:55.636Z,57.10
2018-02-14T11:51:23.860Z,57.10
2018-02-14T11:53:52.195Z,57.10
2018-02-14T11:56:20.504Z,57.00
2018-02-14T11:58:50.658Z,56.80
2018-02-14T12:01:19.037Z,56.60
2018-02-14T12:03:48.406Z,56.50
2018-02-14T12:06:16.688Z,56.30
2018-02-14T12:08:44.943Z,56.20
2018-02-14T12:11:13.323Z,56.20
2018-02-14T12:13:41.593Z,56.30
2018-02-14T12:16:09.866Z,56.20
2018-02-14T12:18:38.087Z,56.00
2018-02-14T12:21:06.411Z,55.80
2018-02-14T12:23:34.691Z,55.90
2018-02-14T12:26:02.940Z,55.80
2018-02-14T12:28:31.247Z,55.70
2018-02-14T12:30:59.525Z,55.60
2018-02-14T12:33:27.773Z,55.30
2018-02-14T12:35:56.775Z,55.20
2018-02-14T12:38:25.782Z,54.90
2018-02-14T12:40:54.089Z,54.90
2018-02-14T12:43:22.323Z,54.90
2018-02-14T12:45:51.327Z,54.30
2018-02-14T12:48:19.566Z,54.20
2018-02-14T12:50:47.891Z,54.40
2018-02-14T12:53:16.136Z,53.30
2018-02-14T12:55:45.144Z,53.00
2018-02-14T12:58:14.154Z,53.50
2018-02-14T13:00:42.429Z,53.40
2018-02-14T13:03:10.674Z,53.40
2018-02-14T13:05:40.573Z,54.20
2018-02-14T13:08:08.830Z,53.40
2018-02-14T13:10:37.173Z,53.40
2018-02-14T13:13:05.395Z,53.20
2018-02-14T13:15:33.641Z,53.10
2018-02-14T13:18:01.875Z,52.80
2018-02-14T13:20:30.258Z,52.50
2018-02-14T13:22:58.473Z,52.20
2018-02-14T13:25:26.727Z,52.20
2018-02-14T13:27:54.975Z,52.30
2018-02-14T13:30:23.977Z,52.30
2018-02-14T13:32:52.977Z,51.90
2018-02-14T13:35:21.960Z,51.60
2018-02-14T13:37:50.995Z,51.40
2018-02-14T13:40:19.225Z,51.40
2018-02-14T13:42:48.232Z,51.60
2018-02-14T13:45:17.213Z,51.00
2018-02-14T13:47:46.215Z,51.10
2018-02-14T13:50:15.240Z,51.20
2018-02-14T13:52:43.503Z,51.10
2018-02-14T13:55:11.785Z,51.00
2018-02-14T13:57:40.038Z,50.90
2018-02-14T14:00:09.096Z,50.90
2018-02-14T14:02:37.317Z,50.90
2018-02-14T14:05:06.337Z,51.00
2018-02-14T14:07:34.565Z,51.00
2018-02-14T14:10:02.843Z,51.00
2018-02-14T14:12:31.072Z,51.00
2018-02-14T14:14:59.327Z,50.90
2018-02-14T14:17:27.609Z,50.90
2018-02-14T14:19:55.845Z,51.00
2018-02-14T14:22:24.100Z,51.00
2018-02-14T14:24:52.440Z,51.00
2018-02-14T14:27:20.679Z,51.00
2018-02-14T14:29:48.983Z,51.00
2018-02-14T14:32:17.244Z,51.00
2018-02-14T14:34:45.545Z,51.00
2018-02-14T14:37:13.812Z,51.00
2018-02-14T14:39:42.096Z,50.90
2018-02-14T14:42:10.419Z,50.80
2018-02-14T14:44:38.631Z,50.70
2018-02-14T14:47:07.608Z,50.60
2018-02-14T14:49:35.872Z,50.50
2018-02-14T14:52:04.145Z,50.70
2018-02-14T14:54:32.461Z,50.70
2018-02-14T14:57:00.743Z,50.60
2018-02-14T14:59:29.138Z,50.60
2018-02-14T15:01:57.349Z,50.60
2018-02-14T15:04:25.573Z,50.60
2018-02-14T15:06:53.830Z,50.60
2018-02-14T15:09:22.811Z,50.70
2018-02-14T15:11:51.122Z,50.60
2018-02-14T15:14:19.435Z,50.70
2018-02-14T15:16:47.653Z,50.60
2018-02-14T15:19:15.953Z,50.70
2018-02-14T15:21:44.236Z,50.60
2018-02-14T15:24:12.466Z,50.70
2018-02-14T15:26:41.473Z,50.80
2018-02-14T15:29:09.785Z,50.80
2018-02-14T15:31:38.044Z,50.60
2018-02-14T15:34:07.025Z,50.30
2018-02-14T15:36:36.027Z,50.30
2018-02-14T15:39:05.134Z,50.40
2018-02-14T15:41:33.352Z,50.30
2018-02-14T15:44:01.587Z,50.20
2018-02-14T15:46:29.843Z,50.30
2018-02-14T15:48:58.852Z,50.80
2018-02-14T15:51:27.145Z,50.70
2018-02-14T15:53:55.403Z,50.90
2018-02-14T15:56:24.401Z,51.20
2018-02-14T15:58:52.622Z,51.10
2018-02-14T16:01:20.976Z,51.20
2018-02-14T16:03:49.219Z,51.20
2018-02-14T16:06:18.248Z,51.40
2018-02-14T16:08:46.475Z,51.40
2018-02-14T16:11:15.484Z,51.60
2018-02-14T16:13:44.468Z,51.80
2018-02-14T16:16:13.479Z,51.90
2018-02-14T16:18:41.775Z,51.80
2018-02-14T16:21:10.021Z,52.00
2018-02-14T16:23:39.038Z,52.30
2018-02-14T16:26:07.288Z,52.30
2018-02-14T16:28:36.336Z,52.50
2018-02-14T16:31:04.569Z,52.30
2018-02-14T16:33:32.820Z,52.50
2018-02-14T16:36:01.049Z,52.80
2018-02-14T16:38:29.376Z,52.80
2018-02-14T16:40:58.416Z,52.90
2018-02-14T16:43:26.657Z,52.90
2018-02-14T16:45:55.647Z,53.10
2018-02-14T16:48:24.657Z,53.30
2018-02-14T16:50:52.940Z,53.20
2018-02-14T16:53:21.197Z,53.40
2018-02-14T16:55:50.292Z,53.60
2018-02-14T16:58:18.487Z,53.50
2018-02-14T17:00:46.720Z,53.70
2018-02-14T17:03:14.957Z,53.70
2018-02-14T17:05:43.211Z,53.90
2018-02-14T17:08:11.457Z,53.90
2018-02-14T17:10:39.771Z,54.00
2018-02-14T17:13:08.045Z,54.00
2018-02-14T17:15:36.284Z,54.20
2018-02-14T17:18:04.604Z,54.20
2018-02-14T17:20:32.844Z,54.20
2018-02-14T17:23:01.113Z,54.40
2018-02-14T17:25:30.224Z,54.50
2018-02-14T17:27:59.227Z,55.00
2018-02-14T17:30:28.227Z,55.20
2018-02-14T17:32:56.574Z,55.20
2018-02-14T17:35:24.945Z,55.60
2018-02-14T17:37:53.181Z,55.50
2018-02-14T17:40:21.452Z,55.60
2018-02-14T17:42:49.720Z,55.70
2018-02-14T17:45:17.961Z,55.90
2018-02-14T17:47:46.988Z,56.40
2018-02-14T17:50:15.253Z,56.20
2018-02-14T17:52:44.291Z,56.40
2018-02-14T17:55:12.708Z,56.30
2018-02-14T17:57:40.931Z,56.40
2018-02-14T18:00:09.174Z,56.50
2018-02-14T18:02:38.186Z,56.50
2018-02-14T18:05:06.400Z,56.50
2018-02-14T18:07:34.657Z,56.60
2018-02-14T18:10:02.921Z,56.50
2018-02-14T18:12:31.157Z,56.60
2018-02-14T18:14:59.412Z,56.60
2018-02-14T18:17:27.645Z,56.80
2018-02-14T18:19:55.923Z,56.70
2018-02-14T18:22:24.198Z,56.80
2018-02-14T18:24:52.466Z,57.30
2018-02-14T18:27:21.467Z,57.00
2018-02-14T18:29:49.793Z,57.00
2018-02-14T18:32:18.025Z,57.30
2018-02-14T18:34:46.262Z,57.20
2018-02-14T18:37:16.025Z,57.20
2018-02-14T18:39:44.280Z,57.20
2018-02-14T18:42:12.561Z,57.20
2018-02-14T18:44:40.825Z,57.40
2018-02-14T18:47:09.044Z,57.50
2018-02-14T18:49:37.325Z,57.50
2018-02-14T18:52:05.550Z,57.80
2018-02-14T18:54:34.625Z,57.70
2018-02-14T18:57:02.818Z,57.70
2018-02-14T18:59:31.077Z,57.60
2018-02-14T19:02:00.114Z,57.80
2018-02-14T19:04:28.451Z,57.80
2018-02-14T19:06:56.656Z,58.00
2018-02-14T19:09:24.953Z,58.00
2018-02-14T19:11:53.215Z,58.10
2018-02-14T19:14:21.431Z,58.00
2018-02-14T19:16:50.424Z,58.00
2018-02-14T19:19:18.717Z,58.00
2018-02-14T19:21:46.935Z,58.10
2018-02-14T19:24:15.162Z,58.10
2018-02-14T19:26:43.473Z,58.20
2018-02-14T19:29:11.698Z,58.30
2018-02-14T19:31:39.990Z,58.40
2018-02-14T19:34:08.348Z,58.60
2018-02-14T19:36:36.604Z,58.80
2018-02-14T19:39:05.681Z,59.00
2018-02-14T19:41:34.027Z,59.20
2018-02-14T19:44:02.216Z,59.10
2018-02-14T19:46:31.237Z,59.20
2018-02-14T19:48:59.499Z,59.10
2018-02-14T19:51:27.792Z,59.20
2018-02-14T19:53:56.049Z,59.20
2018-02-14T19:56:25.049Z,59.50
2018-02-14T19:58:53.333Z,59.50
2018-02-14T20:01:21.914Z,59.40
2018-02-14T20:03:50.180Z,59.80
2018-02-14T20:06:19.226Z,60.00
2018-02-14T20:08:48.253Z,60.20
2018-02-14T20:11:17.269Z,60.30
2018-02-14T20:13:45.498Z,60.20
2018-02-14T20:16:13.824Z,60.00
2018-02-14T20:18:42.046Z,60.30
2018-02-14T20:21:10.342Z,60.60
2018-02-14T20:23:38.665Z,61.10
2018-02-14T20:26:06.881Z,61.10
2018-02-14T20:28:35.137Z,61.10
2018-02-14T20:31:03.377Z,61.20
2018-02-14T20:33:31.639Z,61.10
2018-02-14T20:36:00.771Z,60.90
2018-02-14T20:38:29.015Z,60.90
2018-02-14T20:40:58.000Z,60.70
2018-02-14T20:43:27.018Z,60.60
2018-02-14T20:45:55.308Z,60.50
2018-02-14T20:48:23.602Z,61.20
2018-02-14T20:53:58.229Z,60.40
2018-02-14T20:56:26.460Z,60.80
2018-02-14T20:58:54.793Z,62.10
2018-02-14T21:03:56.624Z,61.60
2018-02-14T21:06:24.901Z,61.60
2018-02-14T21:08:53.151Z,61.20
2018-02-14T21:11:21.406Z,60.90
2018-02-14T21:13:49.695Z,60.70
2018-02-14T21:16:17.960Z,61.00
2018-02-14T21:18:46.237Z,60.20
2018-02-14T21:21:14.485Z,60.80
2018-02-14T21:23:43.614Z,60.70
2018-02-14T21:26:11.878Z,60.60
2018-02-14T21:28:40.163Z,60.80
2018-02-14T21:31:08.409Z,60.50
2018-02-14T21:33:37.500Z,60.50
2018-02-14T21:36:06.611Z,60.60
2018-02-14T21:38:34.892Z,61.30
2018-02-14T21:41:03.141Z,61.40
2018-02-14T21:43:31.410Z,61.40
2018-02-14T21:45:59.651Z,61.40
2018-02-14T21:48:27.917Z,61.40
2018-02-14T21:50:56.297Z,61.40
2018-02-14T21:53:24.574Z,61.10
2018-02-14T21:55:52.828Z,61.00
2018-02-14T21:58:21.134Z,61.70
2018-02-14T22:00:49.386Z,62.00
2018-02-14T22:03:17.677Z,61.90
2018-02-14T22:05:45.929Z,62.40
2018-02-14T22:08:14.185Z,62.10
2018-02-14T22:10:43.225Z,62.30
2018-02-14T22:13:11.517Z,62.30
2018-02-14T22:15:39.877Z,62.30
2018-02-14T22:18:08.149Z,62.40
2018-02-14T22:20:36.400Z,63.00
2018-02-14T22:23:05.435Z,62.80
2018-02-14T22:25:33.724Z,62.80
2018-02-14T22:28:01.956Z,63.00
2018-02-14T22:30:30.269Z,62.50
2018-02-14T22:32:58.527Z,62.50
2018-02-14T22:35:26.764Z,62.80
2018-02-14T22:37:55.831Z,62.80
2018-02-14T22:40:24.077Z,62.70
2018-02-14T22:42:52.382Z,63.50
2018-02-14T22:45:20.626Z,63.40
2018-02-14T22:47:48.927Z,63.20
2018-02-14T22:50:17.176Z,63.00
2018-02-14T22:52:45.488Z,62.90
2018-02-14T22:55:13.739Z,62.70
2018-02-14T22:57:42.010Z,62.40
2018-02-14T23:00:10.339Z,62.30
2018-02-14T23:02:38.580Z,62.30
2018-02-14T23:05:06.845Z,61.90
2018-02-14T23:07:35.332Z,61.60
2018-02-14T23:10:03.721Z,61.90
2018-02-14T23:12:31.956Z,61.80
2018-02-14T23:15:00.262Z,62.00
2018-02-14T23:17:28.517Z,62.40
2018-02-14T23:19:56.754Z,62.50
2018-02-14T23:22:25.004Z,62.70
2018-02-14T23:24:53.242Z,62.50
2018-02-14T23:27:21.529Z,62.60
2018-02-14T23:29:49.765Z,62.40
2018-02-14T23:32:18.019Z,62.50
2018-02-14T23:34:46.278Z,62.90
2018-02-14T23:37:14.543Z,62.90
2018-02-14T23:39:42.830Z,62.80
2018-02-14T23:42:11.077Z,63.50
2018-02-14T23:44:40.366Z,63.20
2018-02-14T23:47:09.638Z,62.80
2018-02-14T23:49:37.877Z,62.70
2018-02-14T23:52:06.112Z,62.40
2018-02-14T23:54:35.152Z,61.70
2018-02-14T23:57:03.421Z,61.60
2018-02-14T23:59:31.712Z,61.40
